createdAt,value
2022-09-25T00:02:10.378Z,100044.53
2022-09-25T00:04:39.095Z,100032.16
2022-09-25T00:07:07.620Z,100039.66
2022-09-25T00:09:36.567Z,100036.22
2022-09-25T00:12:05.187Z,100034.53
2022-09-25T00:14:33.826Z,100044.53
2022-09-25T00:17:03.398Z,100048.13
2022-09-25T00:19:55.102Z,100044.53
2022-09-25T00:22:27.010Z,100051.47
2022-09-25T00:24:55.662Z,100048.00
2022-09-25T00:27:24.132Z,100052.31
2022-09-25T00:29:53.581Z,100038.59
2022-09-25T00:32:22.103Z,100038.72
2022-09-25T00:34:52.233Z,100040.13
2022-09-25T00:37:21.226Z,100040.38
2022-09-25T00:39:49.741Z,100028.03
2022-09-25T00:42:21.504Z,100035.00
2022-09-25T00:44:57.584Z,100026.13
2022-09-25T00:47:46.280Z,100031.97
2022-09-25T00:50:26.251Z,100038.22
2022-09-25T00:53:04.122Z,100027.56
2022-09-25T00:55:35.233Z,100023.72
2022-09-25T00:58:05.262Z,100034.53
2022-09-25T01:00:34.908Z,100024.28
2022-09-25T01:03:05.279Z,100025.66
2022-09-25T01:05:38.427Z,100023.50
2022-09-25T01:08:10.323Z,100019.09
2022-09-25T01:10:38.884Z,100016.72
2022-09-25T01:13:07.984Z,100011.84
2022-09-25T01:15:45.530Z,100017.97
2022-09-25T01:18:26.426Z,100020.50
2022-09-25T01:21:06.467Z,100012.53
2022-09-25T01:23:57.396Z,100029.81
2022-09-25T01:26:45.176Z,100032.38
2022-09-25T01:29:19.353Z,100025.72
2022-09-25T01:31:53.313Z,100021.03
2022-09-25T01:34:28.622Z,100022.19
2022-09-25T01:37:03.725Z,100018.25
2022-09-25T01:39:36.622Z,100008.47
2022-09-25T01:42:12.043Z,100012.41
2022-09-25T01:44:47.633Z,100015.13
2022-09-25T01:47:22.567Z,100011.09
2022-09-25T01:49:56.925Z,100010.84
2022-09-25T01:52:33.149Z,100021.34
2022-09-25T01:55:10.003Z,100016.53
2022-09-25T01:57:45.392Z,100010.97
2022-09-25T02:00:19.095Z,100017.88
2022-09-25T02:02:55.409Z,100016.34
2022-09-25T02:05:29.662Z,100013.47
2022-09-25T02:08:03.039Z,100023.03
2022-09-25T02:10:36.832Z,100015.41
2022-09-25T02:13:10.669Z,100017.13
2022-09-25T02:15:45.146Z,100009.75
2022-09-25T02:18:34.906Z,100016.59
2022-09-25T02:21:14.331Z,100014.09
2022-09-25T02:23:52.143Z,100005.78
2022-09-25T02:26:27.386Z,100008.00
2022-09-25T02:28:56.614Z,100004.00
2022-09-25T02:31:35.899Z,100002.56
2022-09-25T02:34:05.361Z,99990.03
2022-09-25T02:36:36.315Z,100005.03
2022-09-25T02:39:07.925Z,99993.50
2022-09-25T02:41:50.558Z,100005.44
2022-09-25T02:44:29.266Z,100008.06
2022-09-25T02:47:14.313Z,99997.63
2022-09-25T02:49:52.436Z,99992.63
2022-09-25T02:52:29.164Z,99993.56
2022-09-25T02:55:04.115Z,99989.50
2022-09-25T02:57:40.894Z,99993.91
2022-09-25T03:00:10.997Z,99987.38
2022-09-25T03:02:46.839Z,99990.75
2022-09-25T03:05:18.678Z,99981.97
2022-09-25T03:08:04.431Z,99990.31
2022-09-25T03:10:36.324Z,99983.63
2022-09-25T03:13:15.524Z,99990.31
2022-09-25T03:15:48.199Z,99985.53
2022-09-25T03:18:18.361Z,99979.69
2022-09-25T03:20:46.967Z,99974.13
2022-09-25T03:23:15.796Z,99983.44
2022-09-25T03:25:49.748Z,99970.31
2022-09-25T03:28:19.658Z,99973.53
2022-09-25T03:30:58.502Z,99978.19
2022-09-25T03:33:29.899Z,99983.44
2022-09-25T03:36:07.090Z,99978.94
2022-09-25T03:38:35.608Z,99975.81
2022-09-25T03:41:06.943Z,99984.28
2022-09-25T03:43:37.491Z,99980.81
2022-09-25T03:46:06.286Z,99974.66
2022-09-25T03:48:36.676Z,99989.28
2022-09-25T03:51:06.427Z,99990.81
2022-09-25T03:53:35.809Z,99972.03
2022-09-25T03:56:07.335Z,99981.66
2022-09-25T03:58:36.697Z,99977.38
2022-09-25T04:04:16.531Z,99971.13
2022-09-25T04:06:46.150Z,99970.75
2022-09-25T04:09:14.607Z,99966.44
2022-09-25T04:11:43.127Z,99973.69
2022-09-25T04:14:12.695Z,99982.47
2022-09-25T04:16:42.012Z,99974.63
2022-09-25T04:19:11.819Z,99970.59
2022-09-25T04:21:41.668Z,99969.59
2022-09-25T04:24:27.600Z,99970.53
2022-09-25T04:26:56.034Z,99973.69
2022-09-25T04:29:24.979Z,99967.72
2022-09-25T04:32:07.424Z,99972.22
2022-09-25T04:34:36.013Z,99972.72
2022-09-25T04:37:06.071Z,99969.16
2022-09-25T04:39:34.539Z,99971.50
2022-09-25T04:42:03.144Z,99959.50
2022-09-25T04:44:31.664Z,99961.59
2022-09-25T04:47:00.175Z,99973.38
2022-09-25T04:49:28.885Z,99963.50
2022-09-25T04:51:57.496Z,99960.44
2022-09-25T04:54:27.717Z,99944.34
2022-09-25T04:56:57.663Z,99947.44
2022-09-25T04:59:26.155Z,99960.28
2022-09-25T05:01:54.699Z,99954.09
2022-09-25T05:04:23.222Z,99949.78
2022-09-25T05:06:51.687Z,99953.66
2022-09-25T05:09:20.189Z,99966.38
2022-09-25T05:11:50.014Z,99964.44
2022-09-25T05:14:18.597Z,99963.13
2022-09-25T05:16:47.491Z,99969.81
2022-09-25T05:19:16.697Z,99968.53
2022-09-25T05:21:45.724Z,99971.38
2022-09-25T05:24:14.232Z,99962.34
2022-09-25T05:26:43.028Z,99986.31
2022-09-25T05:29:12.896Z,99977.16
2022-09-25T05:31:42.916Z,99974.66
2022-09-25T05:34:11.632Z,99976.09
2022-09-25T05:36:40.065Z,99964.69
2022-09-25T05:39:14.443Z,99985.34
2022-09-25T05:41:43.267Z,99971.75
2022-09-25T05:44:15.036Z,99965.31
2022-09-25T05:46:43.583Z,99970.59
2022-09-25T05:49:12.020Z,99977.22
2022-09-25T05:51:40.520Z,99974.50
2022-09-25T05:54:09.180Z,99974.53
2022-09-25T05:56:37.796Z,99978.53
2022-09-25T05:59:06.463Z,99981.94
2022-09-25T06:01:36.372Z,99972.06
2022-09-25T06:04:04.867Z,99978.75
2022-09-25T06:06:33.323Z,99981.09
2022-09-25T06:09:01.749Z,99976.00
2022-09-25T06:11:31.725Z,99977.00
2022-09-25T06:14:00.174Z,99980.56
2022-09-25T06:16:28.679Z,99982.06
2022-09-25T06:18:58.572Z,99985.84
2022-09-25T06:21:27.148Z,99977.75
2022-09-25T06:23:55.997Z,99985.63
2022-09-25T06:26:26.028Z,99990.47
2022-09-25T06:28:55.961Z,99993.78
2022-09-25T06:31:27.182Z,99988.16
2022-09-25T06:33:56.079Z,99987.81
2022-09-25T06:36:27.379Z,100003.03
2022-09-25T06:38:56.260Z,99998.22
2022-09-25T06:41:25.085Z,99993.13
2022-09-25T06:43:55.239Z,99983.28
2022-09-25T06:46:24.111Z,99995.81
2022-09-25T06:48:54.541Z,99996.78
2022-09-25T06:51:23.530Z,99991.94
2022-09-25T06:53:55.942Z,99991.00
2022-09-25T06:56:24.479Z,99989.69
2022-09-25T06:58:52.966Z,99995.63
2022-09-25T07:01:21.570Z,100001.59
2022-09-25T07:03:49.929Z,99997.31
2022-09-25T07:06:20.279Z,99993.06
2022-09-25T07:08:49.504Z,99993.25
2022-09-25T07:11:20.913Z,99986.34
2022-09-25T07:13:55.456Z,99991.00
2022-09-25T07:16:25.699Z,99996.25
2022-09-25T07:18:55.735Z,99996.13
2022-09-25T07:21:27.865Z,99999.75
2022-09-25T07:23:57.633Z,99990.00
2022-09-25T07:26:28.964Z,99976.78
2022-09-25T07:28:59.458Z,99980.56
2022-09-25T07:31:29.662Z,99990.44
2022-09-25T07:33:59.758Z,99975.97
2022-09-25T07:36:28.740Z,99973.09
2022-09-25T07:38:57.176Z,99967.84
2022-09-25T07:41:27.416Z,99975.63
2022-09-25T07:46:46.487Z,99955.09
2022-09-25T07:49:15.239Z,99959.84
2022-09-25T07:51:43.670Z,99957.63
2022-09-25T07:54:12.220Z,99954.72
2022-09-25T07:56:42.073Z,99947.25
2022-09-25T07:59:10.996Z,99941.88
2022-09-25T08:01:44.683Z,99953.69
2022-09-25T08:04:14.847Z,99957.53
2022-09-25T08:06:43.477Z,99956.72
2022-09-25T08:09:12.531Z,99965.81
2022-09-25T08:11:43.085Z,99960.22
2022-09-25T08:14:14.516Z,99964.72
2022-09-25T08:16:43.907Z,99959.72
2022-09-25T08:19:12.772Z,99961.25
2022-09-25T08:21:41.701Z,99959.34
2022-09-25T08:24:10.924Z,99952.63
2022-09-25T08:26:39.497Z,99946.78
2022-09-25T08:29:09.538Z,99958.81
2022-09-25T08:31:38.165Z,99967.03
2022-09-25T08:34:35.848Z,99958.06
2022-09-25T08:36:58.130Z,99974.94
2022-09-25T08:39:26.726Z,99965.97
2022-09-25T08:41:56.627Z,99975.44
2022-09-25T08:44:32.425Z,99958.50
2022-09-25T08:47:24.345Z,99968.16
2022-09-25T08:50:05.932Z,99967.97
2022-09-25T08:52:35.753Z,99960.13
2022-09-25T08:55:05.046Z,99961.38
2022-09-25T08:57:40.367Z,99973.03
2022-09-25T09:00:20.352Z,99958.63
2022-09-25T09:02:54.394Z,99961.47
2022-09-25T09:05:27.232Z,99959.34
2022-09-25T09:08:00.517Z,99963.50
2022-09-25T09:10:35.270Z,99965.13
2022-09-25T09:13:15.234Z,99954.94
2022-09-25T09:15:51.329Z,99957.03
2022-09-25T09:18:24.387Z,99965.97
2022-09-25T09:20:56.765Z,99963.31
2022-09-25T09:23:28.709Z,99956.09
2022-09-25T09:26:03.144Z,99955.25
2022-09-25T09:29:04.908Z,99952.34
2022-09-25T09:31:46.964Z,99949.34
2022-09-25T09:35:04.259Z,99952.81
2022-09-25T09:37:31.872Z,99926.28
2022-09-25T09:40:19.263Z,99941.72
2022-09-25T09:42:56.565Z,99933.88
2022-09-25T09:45:33.276Z,99931.16
2022-09-25T09:48:14.077Z,99936.75
2022-09-25T09:50:51.373Z,99939.47
2022-09-25T09:53:30.531Z,99941.13
2022-09-25T09:56:06.426Z,99939.53
2022-09-25T09:58:48.487Z,99932.44
2022-09-25T10:01:40.241Z,99935.94
2022-09-25T10:04:12.073Z,99943.47
2022-09-25T10:06:46.795Z,99936.47
2022-09-25T10:09:17.277Z,99929.75
2022-09-25T10:11:48.493Z,99930.94
2022-09-25T10:14:22.100Z,99929.97
2022-09-25T10:16:52.900Z,99925.16
2022-09-25T10:19:24.946Z,99920.81
2022-09-25T10:22:00.266Z,99918.53
2022-09-25T10:24:52.959Z,99931.38
2022-09-25T10:27:33.077Z,99932.81
2022-09-25T10:30:22.776Z,99922.72
2022-09-25T10:32:59.189Z,99922.44
2022-09-25T10:35:31.398Z,99914.28
2022-09-25T10:38:02.521Z,99914.16
2022-09-25T10:40:34.282Z,99903.44
2022-09-25T10:43:15.874Z,99912.28
2022-09-25T10:45:45.462Z,99915.56
2022-09-25T10:48:46.168Z,99902.59
2022-09-25T10:51:18.520Z,99898.22
2022-09-25T10:53:48.038Z,99896.25
2022-09-25T10:56:21.806Z,99900.94
2022-09-25T10:58:55.853Z,99898.13
2022-09-25T11:01:33.659Z,99897.19
2022-09-25T11:04:06.512Z,99897.06
2022-09-25T11:06:37.227Z,99895.00
2022-09-25T11:09:14.078Z,99882.94
2022-09-25T11:11:44.325Z,99887.66
2022-09-25T11:14:22.457Z,99874.44
2022-09-25T11:16:54.129Z,99876.97
2022-09-25T11:19:27.203Z,99876.88
2022-09-25T11:22:08.192Z,99879.94
2022-09-25T11:24:51.475Z,99879.56
2022-09-25T11:27:25.998Z,99875.16
2022-09-25T11:30:06.380Z,99865.63
2022-09-25T11:32:42.728Z,99859.69
2022-09-25T11:35:26.439Z,99861.94
2022-09-25T11:38:05.435Z,99855.03
2022-09-25T11:41:02.405Z,99855.53
2022-09-25T11:43:47.688Z,99852.63
2022-09-25T11:46:23.624Z,99843.72
2022-09-25T11:49:09.933Z,99843.88
2022-09-25T11:52:22.912Z,99833.19
2022-09-25T11:55:16.137Z,99839.81
2022-09-25T11:57:57.221Z,99835.72
2022-09-25T12:00:32.901Z,99829.81
2022-09-25T12:03:11.974Z,99828.81
2022-09-25T12:05:58.844Z,99824.94
2022-09-25T12:08:44.143Z,99827.53
2022-09-25T12:11:23.844Z,99822.34
2022-09-25T12:13:59.816Z,99820.13
2022-09-25T12:16:37.282Z,99822.19
2022-09-25T12:19:16.954Z,99817.28
2022-09-25T12:21:50.891Z,99821.31
2022-09-25T12:24:33.073Z,99808.66
2022-09-25T12:27:12.027Z,99804.66
2022-09-25T12:30:00.850Z,99797.91
2022-09-25T12:32:48.974Z,99795.47
2022-09-25T12:35:35.168Z,99795.44
2022-09-25T12:38:12.036Z,99789.31
2022-09-25T12:40:46.399Z,99796.53
2022-09-25T12:43:24.281Z,99786.63
2022-09-25T12:45:58.841Z,99775.50
2022-09-25T12:48:33.178Z,99770.78
2022-09-25T12:51:08.972Z,99765.66
2022-09-25T12:53:41.560Z,99757.28
2022-09-25T12:56:15.523Z,99757.56
2022-09-25T12:58:55.541Z,99749.09
2022-09-25T13:01:35.423Z,99733.50
2022-09-25T13:04:22.649Z,99736.03
2022-09-25T13:06:54.334Z,99730.56
2022-09-25T13:09:36.896Z,99733.34
2022-09-25T13:12:10.569Z,99732.72
2022-09-25T13:14:46.754Z,99723.44
2022-09-25T13:17:16.485Z,99722.75
2022-09-25T13:19:45.078Z,99716.59
2022-09-25T13:22:20.607Z,99719.09
2022-09-25T13:24:53.618Z,99713.91
2022-09-25T13:27:24.889Z,99711.63
2022-09-25T13:30:02.893Z,99709.25
2022-09-25T13:32:35.400Z,99706.69
2022-09-25T13:35:07.794Z,99702.75
2022-09-25T13:37:38.667Z,99697.78
2022-09-25T13:40:35.414Z,99695.69
2022-09-25T13:43:24.241Z,99704.44
2022-09-25T13:46:28.426Z,99700.97
2022-09-25T13:49:36.007Z,99682.78
2022-09-25T13:52:04.471Z,99679.31
2022-09-25T13:54:34.990Z,99692.03
2022-09-25T13:57:03.943Z,99674.25
2022-09-25T13:59:41.462Z,99679.94
2022-09-25T14:02:43.864Z,99672.25
2022-09-25T14:05:17.998Z,99680.06
2022-09-25T14:07:48.617Z,99665.56
2022-09-25T14:10:19.232Z,99671.41
2022-09-25T14:12:49.826Z,99654.38
2022-09-25T14:15:25.222Z,99660.16
2022-09-25T14:17:57.039Z,99659.59
2022-09-25T14:20:33.778Z,99660.91
2022-09-25T14:23:06.303Z,99652.69
2022-09-25T14:25:38.326Z,99643.97
2022-09-25T14:28:20.324Z,99653.75
2022-09-25T14:31:05.810Z,99637.53
2022-09-25T14:33:53.696Z,99638.78
2022-09-25T14:36:35.060Z,99636.47
2022-09-25T14:39:20.229Z,99634.38
2022-09-25T14:42:04.503Z,99627.19
2022-09-25T14:44:50.448Z,99630.47
2022-09-25T14:47:21.526Z,99627.00
2022-09-25T14:49:54.840Z,99619.63
2022-09-25T14:52:27.764Z,99617.38
2022-09-25T14:54:57.889Z,99618.34
2022-09-25T14:57:29.479Z,99612.78
2022-09-25T15:00:01.212Z,99602.53
2022-09-25T15:02:34.471Z,99594.06
2022-09-25T15:07:59.494Z,99600.53
2022-09-25T15:10:31.727Z,99596.06
2022-09-25T15:13:16.247Z,99577.91
2022-09-25T15:16:07.451Z,99588.91
2022-09-25T15:18:38.984Z,99590.41
2022-09-25T15:21:09.553Z,99582.53
2022-09-25T15:23:39.602Z,99586.69
2022-09-25T15:26:15.027Z,99585.88
2022-09-25T15:28:44.019Z,99573.72
2022-09-25T15:31:12.918Z,99563.88
2022-09-25T15:33:42.607Z,99563.06
2022-09-25T15:36:17.962Z,99559.91
2022-09-25T15:38:54.301Z,99563.16
2022-09-25T15:41:23.946Z,99545.56
2022-09-25T15:43:53.580Z,99551.31
2022-09-25T15:46:41.176Z,99561.75
2022-09-25T15:49:15.524Z,99554.94
2022-09-25T15:51:52.771Z,99554.84
2022-09-25T15:54:38.155Z,99555.19
2022-09-25T15:57:13.399Z,99546.66
2022-09-25T15:59:58.517Z,99546.94
2022-09-25T16:02:51.187Z,99538.28
2022-09-25T16:05:27.437Z,99544.78
2022-09-25T16:08:17.619Z,99537.19
2022-09-25T16:10:50.122Z,99545.84
2022-09-25T16:13:22.426Z,99552.28
2022-09-25T16:15:53.020Z,99542.63
2022-09-25T16:18:32.172Z,99540.97
2022-09-25T16:21:17.661Z,99543.03
2022-09-25T16:23:55.967Z,99543.03
2022-09-25T16:26:31.168Z,99541.41
2022-09-25T16:29:08.495Z,99536.00
2022-09-25T16:31:37.448Z,99543.91
2022-09-25T16:34:08.730Z,99536.75
2022-09-25T16:36:43.889Z,99533.41
2022-09-25T16:39:17.099Z,99535.63
2022-09-25T16:41:49.741Z,99536.44
2022-09-25T16:44:20.669Z,99538.72
2022-09-25T16:47:07.082Z,99543.03
2022-09-25T16:49:36.281Z,99537.28
2022-09-25T16:52:08.573Z,99548.78
2022-09-25T16:54:39.351Z,99545.47
2022-09-25T16:57:13.831Z,99533.66
2022-09-25T16:59:42.307Z,99545.16
2022-09-25T17:02:22.788Z,99545.94
2022-09-25T17:04:52.062Z,99536.66
2022-09-25T17:07:20.533Z,99545.34
2022-09-25T17:09:48.960Z,99540.13
2022-09-25T17:12:22.467Z,99538.91
2022-09-25T17:14:51.662Z,99543.03
2022-09-25T17:17:21.878Z,99550.81
2022-09-25T17:19:51.248Z,99534.03
2022-09-25T17:22:19.686Z,99534.38
2022-09-25T17:24:48.146Z,99541.00
2022-09-25T17:27:18.797Z,99547.69
2022-09-25T17:29:48.234Z,99559.22
2022-09-25T17:32:17.720Z,99567.00
2022-09-25T17:34:47.214Z,99568.56
2022-09-25T17:37:15.697Z,99572.25
2022-09-25T17:39:44.128Z,99579.63
2022-09-25T17:42:12.871Z,99575.63
2022-09-25T17:44:43.883Z,99579.81
2022-09-25T17:47:13.356Z,99585.47
2022-09-25T17:49:42.065Z,99581.69
2022-09-25T17:52:15.781Z,99580.56
2022-09-25T17:54:44.767Z,99578.31
2022-09-25T17:57:13.440Z,99578.31
2022-09-25T17:59:43.603Z,99585.44
2022-09-25T18:02:17.981Z,99583.16
2022-09-25T18:04:46.531Z,99585.53
2022-09-25T18:07:15.726Z,99596.38
2022-09-25T18:09:44.182Z,99594.81
2022-09-25T18:12:12.660Z,99588.38
2022-09-25T18:14:46.435Z,99586.72
2022-09-25T18:17:16.703Z,99593.59
2022-09-25T18:20:02.815Z,99587.13
2022-09-25T18:22:31.366Z,99599.66
2022-09-25T18:25:00.036Z,99606.63
2022-09-25T18:27:30.770Z,99604.94
2022-09-25T18:30:00.870Z,99610.72
2022-09-25T18:32:31.462Z,99605.25
2022-09-25T18:34:59.944Z,99614.31
2022-09-25T18:37:28.425Z,99613.59
2022-09-25T18:39:56.905Z,99620.53
2022-09-25T18:42:25.333Z,99623.94
2022-09-25T18:44:53.820Z,99625.66
2022-09-25T18:47:23.667Z,99634.00
2022-09-25T18:49:52.546Z,99629.78
2022-09-25T18:52:21.067Z,99631.22
2022-09-25T18:54:49.510Z,99619.03
2022-09-25T18:57:18.395Z,99626.88
2022-09-25T18:59:47.020Z,99623.09
2022-09-25T19:02:21.216Z,99629.47
2022-09-25T19:04:52.829Z,99631.38
2022-09-25T19:07:21.545Z,99633.34
2022-09-25T19:09:50.158Z,99631.41
2022-09-25T19:12:18.754Z,99635.88
2022-09-25T19:14:48.559Z,99619.38
2022-09-25T19:17:18.743Z,99637.91
2022-09-25T19:19:47.158Z,99646.72
2022-09-25T19:22:19.033Z,99636.72
2022-09-25T19:24:47.993Z,99664.59
2022-09-25T19:27:17.895Z,99657.00
2022-09-25T19:29:46.763Z,99660.50
2022-09-25T19:32:17.185Z,99662.97
2022-09-25T19:34:45.668Z,99666.59
2022-09-25T19:37:15.377Z,99662.44
2022-09-25T19:40:02.793Z,99667.59
2022-09-25T19:42:33.830Z,99671.56
2022-09-25T19:45:02.442Z,99676.84
2022-09-25T19:47:30.881Z,99683.50
2022-09-25T19:49:59.541Z,99678.31
2022-09-25T19:52:28.002Z,99684.78
2022-09-25T19:54:57.925Z,99690.09
2022-09-25T19:57:26.454Z,99702.19
2022-09-25T19:59:55.057Z,99705.16
2022-09-25T20:02:23.584Z,99706.16
2022-09-25T20:04:52.623Z,99709.97
2022-09-25T20:07:21.163Z,99707.31
2022-09-25T20:09:49.732Z,99718.91
2022-09-25T20:12:19.617Z,99715.91
2022-09-25T20:14:49.462Z,99720.56
2022-09-25T20:17:17.979Z,99728.13
2022-09-25T20:19:46.663Z,99729.72
2022-09-25T20:22:15.344Z,99728.41
2022-09-25T20:24:43.776Z,99743.59
2022-09-25T20:27:12.273Z,99742.88
2022-09-25T20:29:42.230Z,99741.97
2022-09-25T20:32:10.739Z,99750.69
2022-09-25T20:34:39.254Z,99749.44
2022-09-25T20:37:07.702Z,99755.50
2022-09-25T20:39:36.112Z,99755.59
2022-09-25T20:42:04.595Z,99756.59
2022-09-25T20:44:33.008Z,99760.94
2022-09-25T20:47:02.934Z,99765.03
2022-09-25T20:49:31.431Z,99773.22
2022-09-25T20:52:00.315Z,99774.72
2022-09-25T20:54:29.289Z,99768.31
2022-09-25T20:56:57.774Z,99775.84
2022-09-25T20:59:26.641Z,99765.66
2022-09-25T21:01:55.439Z,99769.22
2022-09-25T21:04:25.428Z,99779.31
2022-09-25T21:06:53.867Z,99778.72
2022-09-25T21:09:25.731Z,99781.94
2022-09-25T21:11:55.329Z,99780.28
2022-09-25T21:14:28.325Z,99791.56
2022-09-25T21:16:57.782Z,99786.38
2022-09-25T21:19:28.150Z,99811.22
2022-09-25T21:21:56.581Z,99808.25
2022-09-25T21:24:25.023Z,99815.28
2022-09-25T21:26:53.527Z,99823.03
2022-09-25T21:29:22.109Z,99825.91
2022-09-25T21:31:51.128Z,99823.03
2022-09-25T21:34:20.671Z,99831.22
2022-09-25T21:36:50.531Z,99824.75
2022-09-25T21:39:21.019Z,99829.06
2022-09-25T21:41:50.624Z,99828.22
2022-09-25T21:44:24.323Z,99820.28
2022-09-25T21:46:52.931Z,99826.72
2022-09-25T21:49:22.517Z,99831.69
2022-09-25T21:51:52.573Z,99833.50
2022-09-25T21:54:22.052Z,99843.69
2022-09-25T21:56:50.557Z,99847.28
2022-09-25T21:59:19.385Z,99836.03
2022-09-25T22:01:47.933Z,99851.84
2022-09-25T22:04:17.212Z,99842.31
2022-09-25T22:06:48.234Z,99850.53
2022-09-25T22:09:19.691Z,99851.13
2022-09-25T22:11:49.455Z,99844.97
2022-09-25T22:14:19.138Z,99854.41
2022-09-25T22:16:49.778Z,99854.03
2022-09-25T22:19:20.141Z,99857.06
2022-09-25T22:21:51.212Z,99838.50
2022-09-25T22:24:21.882Z,99846.41
2022-09-25T22:26:52.841Z,99854.28
2022-09-25T22:29:22.132Z,99848.16
2022-09-25T22:31:51.092Z,99857.31
2022-09-25T22:34:22.582Z,99849.34
2022-09-25T22:36:56.204Z,99855.69
2022-09-25T22:39:30.077Z,99864.06
2022-09-25T22:41:58.637Z,99863.34
2022-09-25T22:44:27.465Z,99866.72
2022-09-25T22:46:56.089Z,99868.53
2022-09-25T22:49:24.717Z,99858.28
2022-09-25T22:51:53.174Z,99868.22
2022-09-25T22:54:22.198Z,99866.75
2022-09-25T22:56:53.912Z,99871.22
2022-09-25T22:59:22.416Z,99877.06
2022-09-25T23:01:53.069Z,99878.97
2022-09-25T23:04:24.660Z,99884.41
2022-09-25T23:06:53.538Z,99887.97
2022-09-25T23:09:25.092Z,99894.34
2022-09-25T23:11:56.245Z,99892.84
2022-09-25T23:14:26.674Z,99889.09
2022-09-25T23:16:55.937Z,99891.03
2022-09-25T23:19:25.168Z,99890.34
2022-09-25T23:21:54.630Z,99892.69
2022-09-25T23:24:23.643Z,99912.38
2022-09-25T23:26:52.834Z,99899.19
2022-09-25T23:29:23.670Z,99897.13
2022-09-25T23:31:52.865Z,99905.88
2022-09-25T23:34:21.782Z,99903.91
2022-09-25T23:36:50.319Z,99911.53
2022-09-25T23:39:21.138Z,99905.75
2022-09-25T23:41:49.931Z,99914.03
2022-09-25T23:44:18.720Z,99916.00
2022-09-25T23:46:48.551Z,99916.53
2022-09-25T23:49:17.194Z,99908.63
2022-09-25T23:51:46.386Z,99919.97
2022-09-25T23:54:15.241Z,99907.09
2022-09-25T23:56:44.187Z,99902.41
2022-09-25T23:59:13.930Z,99908.50
